sensor_id;sensor_type;location;lat;lon;timestamp;pressure;altitude;pressure_sealevel;temperature;humidity
39267;BME280;24967;51.154;13.812;2023-07-16T00:33:50;99066.78;;;24.33;60.44
39267;BME280;24967;51.154;13.812;2023-07-16T00:36:16;99071.94;;;24.12;61.55
39267;BME280;24967;51.154;13.812;2023-07-16T00:38:43;99066.19;;;24.09;62.01
39267;BME280;24967;51.154;13.812;2023-07-16T01:10:13;99121.47;;;24.41;62.02
39267;BME280;24967;51.154;13.812;2023-07-16T01:12:39;99126.91;;;24.58;61.37
39267;BME280;24967;51.154;13.812;2023-07-16T01:15:06;99136.19;;;24.84;60.63
39267;BME280;24967;51.154;13.812;2023-07-16T01:17:34;99135.13;;;24.63;60.75
39267;BME280;24967;51.154;13.812;2023-07-16T01:20:00;99125.00;;;24.81;60.36
39267;BME280;24967;51.154;13.812;2023-07-16T01:22:40;99113.81;;;24.77;60.31
39267;BME280;24967;51.154;13.812;2023-07-16T01:25:17;99087.50;;;24.83;59.58
39267;BME280;24967;51.154;13.812;2023-07-16T01:30:35;99064.16;;;24.87;58.73
39267;BME280;24967;51.154;13.812;2023-07-16T01:33:03;99063.41;;;24.91;58.66
39267;BME280;24967;51.154;13.812;2023-07-16T01:35:30;99078.72;;;24.98;57.96
39267;BME280;24967;51.154;13.812;2023-07-16T01:37:57;99063.94;;;24.88;58.28
39267;BME280;24967;51.154;13.812;2023-07-16T01:40:23;99067.00;;;24.97;58.02
39267;BME280;24967;51.154;13.812;2023-07-16T01:42:50;99084.69;;;25.22;57.30
39267;BME280;24967;51.154;13.812;2023-07-16T01:45:16;99090.44;;;25.25;57.13
39267;BME280;24967;51.154;13.812;2023-07-16T01:47:48;99051.75;;;24.96;57.97
39267;BME280;24967;51.154;13.812;2023-07-16T01:50:16;99036.19;;;25.13;57.65
39267;BME280;24967;51.154;13.812;2023-07-16T01:52:42;99048.06;;;25.07;57.68
39267;BME280;24967;51.154;13.812;2023-07-16T01:59:59;99079.78;;;24.75;58.80
39267;BME280;24967;51.154;13.812;2023-07-16T02:02:25;99076.41;;;24.84;58.97
39267;BME280;24967;51.154;13.812;2023-07-16T02:04:53;99087.69;;;24.98;58.76
39267;BME280;24967;51.154;13.812;2023-07-16T02:07:19;99097.66;;;24.92;58.93
39267;BME280;24967;51.154;13.812;2023-07-16T02:09:46;99094.06;;;25.09;58.51
39267;BME280;24967;51.154;13.812;2023-07-16T02:12:12;99082.09;;;24.61;60.20
39267;BME280;24967;51.154;13.812;2023-07-16T02:14:38;99043.91;;;23.90;63.46
39267;BME280;24967;51.154;13.812;2023-07-16T02:17:05;99019.81;;;23.60;66.01
39267;BME280;24967;51.154;13.812;2023-07-16T02:19:31;99048.78;;;23.88;65.92
39267;BME280;24967;51.154;13.812;2023-07-16T02:21:59;99069.72;;;24.09;66.63
39267;BME280;24967;51.154;13.812;2023-07-16T02:24:25;99080.00;;;23.90;68.45
39267;BME280;24967;51.154;13.812;2023-07-16T02:26:51;99093.16;;;23.98;68.24
39267;BME280;24967;51.154;13.812;2023-07-16T02:29:18;99128.06;;;23.73;69.15
39267;BME280;24967;51.154;13.812;2023-07-16T02:31:44;99162.03;;;23.75;70.18
39267;BME280;24967;51.154;13.812;2023-07-16T02:34:13;99152.97;;;23.41;71.44
39267;BME280;24967;51.154;13.812;2023-07-16T02:36:39;99163.91;;;23.75;70.92
39267;BME280;24967;51.154;13.812;2023-07-16T02:39:07;99150.63;;;23.62;71.85
39267;BME280;24967;51.154;13.812;2023-07-16T02:41:33;99152.19;;;23.58;72.46
39267;BME280;24967;51.154;13.812;2023-07-16T02:44:00;99165.06;;;23.50;73.40
39267;BME280;24967;51.154;13.812;2023-07-16T02:46:27;99166.63;;;23.46;73.76
39267;BME280;24967;51.154;13.812;2023-07-16T02:48:53;99167.06;;;23.26;75.83
39267;BME280;24967;51.154;13.812;2023-07-16T02:51:19;99155.13;;;23.11;77.07
39267;BME280;24967;51.154;13.812;2023-07-16T02:53:46;99156.19;;;23.09;78.77
39267;BME280;24967;51.154;13.812;2023-07-16T02:56:13;99171.53;;;22.92;79.59
39267;BME280;24967;51.154;13.812;2023-07-16T02:58:41;99186.34;;;22.61;82.43
39267;BME280;24967;51.154;13.812;2023-07-16T03:01:07;99195.06;;;22.39;84.70
39267;BME280;24967;51.154;13.812;2023-07-16T03:03:34;99215.06;;;22.27;86.33
39267;BME280;24967;51.154;13.812;2023-07-16T03:06:00;99225.88;;;22.27;85.76
39267;BME280;24967;51.154;13.812;2023-07-16T03:08:27;99220.94;;;22.24;85.88
39267;BME280;24967;51.154;13.812;2023-07-16T03:10:55;99218.81;;;22.26;85.15
39267;BME280;24967;51.154;13.812;2023-07-16T03:13:22;99226.72;;;22.27;85.69
39267;BME280;24967;51.154;13.812;2023-07-16T03:15:49;99231.53;;;22.25;86.75
39267;BME280;24967;51.154;13.812;2023-07-16T03:18:15;99243.66;;;22.23;87.61
39267;BME280;24967;51.154;13.812;2023-07-16T03:20:42;99243.91;;;22.21;87.69
39267;BME280;24967;51.154;13.812;2023-07-16T03:23:08;99259.91;;;22.23;87.80
39267;BME280;24967;51.154;13.812;2023-07-16T03:25:34;99248.84;;;22.36;87.56
39267;BME280;24967;51.154;13.812;2023-07-16T03:28:01;99256.63;;;22.44;85.91
39267;BME280;24967;51.154;13.812;2023-07-16T03:30:29;99243.44;;;22.36;86.39
39267;BME280;24967;51.154;13.812;2023-07-16T03:32:56;99257.06;;;22.17;88.14
39267;BME280;24967;51.154;13.812;2023-07-16T03:35:22;99267.69;;;22.31;87.79
39267;BME280;24967;51.154;13.812;2023-07-16T03:37:48;99273.22;;;22.48;87.58
39267;BME280;24967;51.154;13.812;2023-07-16T03:40:15;99276.41;;;22.68;85.74
39267;BME280;24967;51.154;13.812;2023-07-16T03:42:42;99280.41;;;22.66;85.68
39267;BME280;24967;51.154;13.812;2023-07-16T03:45:09;99282.66;;;22.57;86.88
39267;BME280;24967;51.154;13.812;2023-07-16T03:47:37;99276.53;;;22.50;86.23
39267;BME280;24967;51.154;13.812;2023-07-16T03:50:03;99275.69;;;22.37;86.13
39267;BME280;24967;51.154;13.812;2023-07-16T03:52:30;99256.63;;;22.44;86.29
39267;BME280;24967;51.154;13.812;2023-07-16T03:54:56;99238.03;;;22.59;85.85
39267;BME280;24967;51.154;13.812;2023-07-16T03:57:23;99216.22;;;22.66;85.07
39267;BME280;24967;51.154;13.812;2023-07-16T03:59:49;99202.34;;;22.62;85.05
39267;BME280;24967;51.154;13.812;2023-07-16T04:02:15;99208.56;;;22.75;83.98
39267;BME280;24967;51.154;13.812;2023-07-16T04:04:43;99208.81;;;22.73;83.78
39267;BME280;24967;51.154;13.812;2023-07-16T04:07:09;99205.00;;;22.86;83.10
39267;BME280;24967;51.154;13.812;2023-07-16T04:09:36;99174.88;;;22.94;82.03
39267;BME280;24967;51.154;13.812;2023-07-16T04:12:03;99181.13;;;22.59;83.94
39267;BME280;24967;51.154;13.812;2023-07-16T04:14:29;99171.59;;;22.69;83.98
39267;BME280;24967;51.154;13.812;2023-07-16T04:16:56;99163.25;;;22.58;84.67
39267;BME280;24967;51.154;13.812;2023-07-16T04:19:22;99154.78;;;22.55;84.83
39267;BME280;24967;51.154;13.812;2023-07-16T04:21:50;99161.22;;;22.66;85.00
39267;BME280;24967;51.154;13.812;2023-07-16T04:24:16;99160.59;;;22.75;84.34
39267;BME280;24967;51.154;13.812;2023-07-16T04:26:42;99140.94;;;22.80;84.68
39267;BME280;24967;51.154;13.812;2023-07-16T04:29:08;99136.66;;;22.84;85.02
39267;BME280;24967;51.154;13.812;2023-07-16T04:31:35;99147.75;;;22.94;85.00
39267;BME280;24967;51.154;13.812;2023-07-16T04:34:01;99147.75;;;22.94;84.78
39267;BME280;24967;51.154;13.812;2023-07-16T04:36:27;99153.97;;;23.06;83.87
39267;BME280;24967;51.154;13.812;2023-07-16T04:38:55;99166.84;;;22.88;85.06
39267;BME280;24967;51.154;13.812;2023-07-16T04:41:21;99172.16;;;22.82;84.81
39267;BME280;24967;51.154;13.812;2023-07-16T04:43:48;99166.88;;;22.76;85.54
39267;BME280;24967;51.154;13.812;2023-07-16T04:46:14;99177.34;;;22.72;85.87
39267;BME280;24967;51.154;13.812;2023-07-16T04:48:41;99171.84;;;22.67;86.22
39267;BME280;24967;51.154;13.812;2023-07-16T04:51:07;99169.16;;;22.44;86.48
39267;BME280;24967;51.154;13.812;2023-07-16T04:53:34;99164.09;;;22.35;87.48
39267;BME280;24967;51.154;13.812;2023-07-16T06:25:30;99298.91;;;24.59;78.16
39267;BME280;24967;51.154;13.812;2023-07-16T06:27:56;99314.03;;;24.72;77.22
39267;BME280;24967;51.154;13.812;2023-07-16T06:30:22;99293.22;;;25.16;74.71
39267;BME280;24967;51.154;13.812;2023-07-16T06:32:49;99302.06;;;24.89;73.99
39267;BME280;24967;51.154;13.812;2023-07-16T06:35:15;99303.19;;;24.55;73.37
39267;BME280;24967;51.154;13.812;2023-07-16T06:37:41;99310.75;;;24.70;74.22
39267;BME280;24967;51.154;13.812;2023-07-16T06:40:08;99308.38;;;24.73;73.17
39267;BME280;24967;51.154;13.812;2023-07-16T06:42:35;99303.75;;;24.90;71.86
39267;BME280;24967;51.154;13.812;2023-07-16T06:45:02;99304.47;;;25.03;71.18
39267;BME280;24967;51.154;13.812;2023-07-16T06:47:28;99308.69;;;24.94;71.32
39267;BME280;24967;51.154;13.812;2023-07-16T06:49:55;99307.00;;;24.92;70.86
39267;BME280;24967;51.154;13.812;2023-07-16T06:52:21;99306.00;;;25.38;71.10
39267;BME280;24967;51.154;13.812;2023-07-16T06:54:49;99299.69;;;25.54;68.38
39267;BME280;24967;51.154;13.812;2023-07-16T06:57:16;99308.56;;;25.66;68.46
39267;BME280;24967;51.154;13.812;2023-07-16T06:59:43;99299.25;;;25.40;68.13
39267;BME280;24967;51.154;13.812;2023-07-16T07:02:10;99300.56;;;25.38;68.19
39267;BME280;24967;51.154;13.812;2023-07-16T07:04:37;99300.13;;;25.68;67.71
39267;BME280;24967;51.154;13.812;2023-07-16T07:07:03;99305.09;;;25.98;66.34
39267;BME280;24967;51.154;13.812;2023-07-16T07:09:30;99307.44;;;25.89;66.25
39267;BME280;24967;51.154;13.812;2023-07-16T07:11:56;99305.50;;;25.85;66.94
39267;BME280;24967;51.154;13.812;2023-07-16T07:14:23;99310.63;;;25.81;64.20
39267;BME280;24967;51.154;13.812;2023-07-16T07:16:51;99305.34;;;25.74;64.39
39267;BME280;24967;51.154;13.812;2023-07-16T07:19:17;99319.25;;;25.51;62.68
39267;BME280;24967;51.154;13.812;2023-07-16T07:21:43;99308.50;;;25.39;63.10
39267;BME280;24967;51.154;13.812;2023-07-16T07:24:10;99304.31;;;25.31;62.60
39267;BME280;24967;51.154;13.812;2023-07-16T07:26:36;99314.50;;;25.19;63.03
39267;BME280;24967;51.154;13.812;2023-07-16T07:29:02;99314.63;;;24.90;62.49
39267;BME280;24967;51.154;13.812;2023-07-16T07:31:28;99318.16;;;24.91;64.08
39267;BME280;24967;51.154;13.812;2023-07-16T07:33:56;99318.38;;;25.06;63.75
39267;BME280;24967;51.154;13.812;2023-07-16T07:36:23;99315.66;;;25.06;63.78
39267;BME280;24967;51.154;13.812;2023-07-16T07:38:50;99324.44;;;25.30;63.68
39267;BME280;24967;51.154;13.812;2023-07-16T07:41:16;99330.81;;;25.41;63.55
39267;BME280;24967;51.154;13.812;2023-07-16T07:43:42;99321.78;;;25.57;61.31
39267;BME280;24967;51.154;13.812;2023-07-16T07:46:09;99325.63;;;25.18;60.09
39267;BME280;24967;51.154;13.812;2023-07-16T07:48:36;99333.97;;;24.77;58.67
39267;BME280;24967;51.154;13.812;2023-07-16T07:51:04;99336.94;;;24.76;59.58
39267;BME280;24967;51.154;13.812;2023-07-16T07:53:30;99337.00;;;24.81;58.68
39267;BME280;24967;51.154;13.812;2023-07-16T09:06:05;99386.06;;;26.08;47.60
39267;BME280;24967;51.154;13.812;2023-07-16T09:08:32;99382.69;;;26.22;47.37
39267;BME280;24967;51.154;13.812;2023-07-16T09:10:58;99394.25;;;26.62;47.58
39267;BME280;24967;51.154;13.812;2023-07-16T09:13:25;99397.78;;;26.57;47.14
39267;BME280;24967;51.154;13.812;2023-07-16T09:15:53;99401.09;;;26.64;48.47
39267;BME280;24967;51.154;13.812;2023-07-16T09:18:20;99399.19;;;26.65;47.91
39267;BME280;24967;51.154;13.812;2023-07-16T09:20:46;99404.81;;;26.53;47.51
39267;BME280;24967;51.154;13.812;2023-07-16T09:23:14;99396.16;;;26.61;47.87
39267;BME280;24967;51.154;13.812;2023-07-16T09:25:43;99405.78;;;26.69;46.42
39267;BME280;24967;51.154;13.812;2023-07-16T09:28:09;99400.06;;;26.43;46.79
39267;BME280;24967;51.154;13.812;2023-07-16T09:30:35;99403.53;;;26.34;46.40
39267;BME280;24967;51.154;13.812;2023-07-16T09:33:11;99407.84;;;26.30;46.90
39267;BME280;24967;51.154;13.812;2023-07-16T09:35:38;99402.69;;;26.33;47.44
39267;BME280;24967;51.154;13.812;2023-07-16T09:38:04;99399.09;;;26.27;46.82
39267;BME280;24967;51.154;13.812;2023-07-16T09:40:32;99402.53;;;26.45;47.17
39267;BME280;24967;51.154;13.812;2023-07-16T09:42:58;99404.28;;;26.56;46.19
39267;BME280;24967;51.154;13.812;2023-07-16T09:45:25;99418.97;;;26.82;45.15
39267;BME280;24967;51.154;13.812;2023-07-16T09:47:51;99419.06;;;26.60;45.73
39267;BME280;24967;51.154;13.812;2023-07-16T09:50:17;99406.84;;;26.63;45.98
39267;BME280;24967;51.154;13.812;2023-07-16T09:52:44;99401.59;;;27.26;45.79
39267;BME280;24967;51.154;13.812;2023-07-16T09:55:12;99413.47;;;27.52;44.85
39267;BME280;24967;51.154;13.812;2023-07-16T09:57:41;99416.97;;;27.42;44.07
39267;BME280;24967;51.154;13.812;2023-07-16T10:00:09;99409.25;;;27.29;44.63
39267;BME280;24967;51.154;13.812;2023-07-16T10:02:37;99419.09;;;27.35;45.04
39267;BME280;24967;51.154;13.812;2023-07-16T10:05:14;99407.84;;;27.69;45.15
39267;BME280;24967;51.154;13.812;2023-07-16T10:07:40;99410.53;;;27.63;43.69
39267;BME280;24967;51.154;13.812;2023-07-16T10:10:07;99407.84;;;27.74;43.22
39267;BME280;24967;51.154;13.812;2023-07-16T10:12:34;99416.41;;;27.93;43.89
39267;BME280;24967;51.154;13.812;2023-07-16T10:15:02;99419.78;;;28.15;43.10
39267;BME280;24967;51.154;13.812;2023-07-16T10:17:30;99420.34;;;28.22;43.68
39267;BME280;24967;51.154;13.812;2023-07-16T10:19:57;99422.25;;;28.32;42.59
39267;BME280;24967;51.154;13.812;2023-07-16T10:22:31;99412.03;;;27.81;42.75
39267;BME280;24967;51.154;13.812;2023-07-16T10:24:57;99422.41;;;27.90;43.49
39267;BME280;24967;51.154;13.812;2023-07-16T10:27:27;99423.38;;;27.63;43.35
39267;BME280;24967;51.154;13.812;2023-07-16T10:29:54;99425.84;;;27.22;42.94
39267;BME280;24967;51.154;13.812;2023-07-16T10:32:23;99428.53;;;27.17;42.36
39267;BME280;24967;51.154;13.812;2023-07-16T10:34:52;99431.06;;;27.29;42.32
39267;BME280;24967;51.154;13.812;2023-07-16T10:37:18;99423.75;;;27.34;42.87
39267;BME280;24967;51.154;13.812;2023-07-16T10:39:46;99420.88;;;27.56;42.37
39267;BME280;24967;51.154;13.812;2023-07-16T10:42:12;99428.47;;;27.97;42.07
39267;BME280;24967;51.154;13.812;2023-07-16T10:44:38;99420.38;;;28.33;42.29
39267;BME280;24967;51.154;13.812;2023-07-16T10:47:05;99434.13;;;28.63;40.54
39267;BME280;24967;51.154;13.812;2023-07-16T10:49:33;99420.41;;;28.53;40.06
39267;BME280;24967;51.154;13.812;2023-07-16T10:52:00;99424.00;;;28.79;38.88
39267;BME280;24967;51.154;13.812;2023-07-16T10:54:26;99420.44;;;28.63;38.24
39267;BME280;24967;51.154;13.812;2023-07-16T10:56:53;99431.28;;;28.17;38.26
39267;BME280;24967;51.154;13.812;2023-07-16T10:59:19;99439.75;;;28.21;38.88
39267;BME280;24967;51.154;13.812;2023-07-16T11:01:45;99439.47;;;28.17;40.21
39267;BME280;24967;51.154;13.812;2023-07-16T11:04:12;99436.66;;;28.02;38.56
39267;BME280;24967;51.154;13.812;2023-07-16T11:06:39;99435.81;;;27.91;39.86
39267;BME280;24967;51.154;13.812;2023-07-16T11:09:06;99429.84;;;27.99;37.76
39267;BME280;24967;51.154;13.812;2023-07-16T11:11:33;99427.72;;;28.32;38.69
39267;BME280;24967;51.154;13.812;2023-07-16T11:13:59;99429.66;;;28.31;37.87
39267;BME280;24967;51.154;13.812;2023-07-16T11:16:25;99424.19;;;28.26;39.26
39267;BME280;24967;51.154;13.812;2023-07-16T11:18:52;99425.34;;;28.56;39.00
39267;BME280;24967;51.154;13.812;2023-07-16T11:21:19;99428.06;;;28.46;38.93
39267;BME280;24967;51.154;13.812;2023-07-16T11:23:50;99412.50;;;28.62;39.93
39267;BME280;24967;51.154;13.812;2023-07-16T11:26:17;99408.13;;;28.61;40.64
39267;BME280;24967;51.154;13.812;2023-07-16T11:28:43;99409.50;;;29.04;39.12
39267;BME280;24967;51.154;13.812;2023-07-16T11:31:10;99413.34;;;28.93;38.38
39267;BME280;24967;51.154;13.812;2023-07-16T11:33:36;99433.84;;;28.60;37.41
39267;BME280;24967;51.154;13.812;2023-07-16T11:36:03;99421.78;;;28.56;37.97
39267;BME280;24967;51.154;13.812;2023-07-16T11:38:30;99409.78;;;28.67;38.02
39267;BME280;24967;51.154;13.812;2023-07-16T11:41:03;99425.38;;;28.76;38.25
39267;BME280;24967;51.154;13.812;2023-07-16T11:43:32;99417.72;;;28.79;38.19
39267;BME280;24967;51.154;13.812;2023-07-16T11:45:59;99419.09;;;28.76;37.87
39267;BME280;24967;51.154;13.812;2023-07-16T11:48:25;99434.41;;;28.67;38.76
39267;BME280;24967;51.154;13.812;2023-07-16T11:50:52;99417.16;;;28.76;38.21
39267;BME280;24967;51.154;13.812;2023-07-16T11:53:18;99413.88;;;28.80;38.71
39267;BME280;24967;51.154;13.812;2023-07-16T11:55:44;99404.31;;;28.67;37.74
39267;BME280;24967;51.154;13.812;2023-07-16T11:58:12;99391.47;;;29.03;38.92
39267;BME280;24967;51.154;13.812;2023-07-16T12:00:38;99384.59;;;29.16;38.33
39267;BME280;24967;51.154;13.812;2023-07-16T12:03:05;99400.38;;;29.65;39.81
39267;BME280;24967;51.154;13.812;2023-07-16T12:05:31;99398.81;;;29.38;38.03
39267;BME280;24967;51.154;13.812;2023-07-16T12:07:58;99391.66;;;29.42;37.92
39267;BME280;24967;51.154;13.812;2023-07-16T12:10:24;99398.28;;;28.85;38.40
39267;BME280;24967;51.154;13.812;2023-07-16T12:12:50;99398.03;;;29.17;38.11
39267;BME280;24967;51.154;13.812;2023-07-16T12:15:18;99393.91;;;29.15;37.91
39267;BME280;24967;51.154;13.812;2023-07-16T12:17:44;99397.72;;;29.19;39.00
39267;BME280;24967;51.154;13.812;2023-07-16T12:20:11;99393.84;;;29.45;37.98
39267;BME280;24967;51.154;13.812;2023-07-16T12:22:37;99404.84;;;28.99;37.45
39267;BME280;24967;51.154;13.812;2023-07-16T12:25:04;99406.50;;;28.80;38.42
39267;BME280;24967;51.154;13.812;2023-07-16T12:27:30;99403.75;;;28.85;38.75
39267;BME280;24967;51.154;13.812;2023-07-16T12:29:57;99399.94;;;28.61;40.05
39267;BME280;24967;51.154;13.812;2023-07-16T12:32:24;99397.75;;;28.73;40.44
39267;BME280;24967;51.154;13.812;2023-07-16T12:34:51;99387.88;;;28.97;39.08
39267;BME280;24967;51.154;13.812;2023-07-16T12:37:17;99392.81;;;28.90;39.76
39267;BME280;24967;51.154;13.812;2023-07-16T12:39:43;99378.59;;;29.04;38.93
39267;BME280;24967;51.154;13.812;2023-07-16T12:42:10;99386.78;;;28.83;39.32
39267;BME280;24967;51.154;13.812;2023-07-16T12:44:36;99392.28;;;28.68;40.55
39267;BME280;24967;51.154;13.812;2023-07-16T12:47:02;99387.63;;;28.63;39.95
39267;BME280;24967;51.154;13.812;2023-07-16T12:49:31;99386.81;;;28.73;39.44
39267;BME280;24967;51.154;13.812;2023-07-16T12:51:57;99385.44;;;28.65;39.91
39267;BME280;24967;51.154;13.812;2023-07-16T12:54:24;99386.53;;;28.69;39.17
39267;BME280;24967;51.154;13.812;2023-07-16T12:56:50;99383.53;;;28.76;39.33
39267;BME280;24967;51.154;13.812;2023-07-16T12:59:16;99390.91;;;29.11;39.31
39267;BME280;24967;51.154;13.812;2023-07-16T13:01:43;99379.38;;;29.25;39.36
39267;BME280;24967;51.154;13.812;2023-07-16T13:04:09;99389.16;;;29.51;38.73
39267;BME280;24967;51.154;13.812;2023-07-16T13:06:37;99393.78;;;29.56;39.35
39267;BME280;24967;51.154;13.812;2023-07-16T13:09:03;99386.41;;;29.66;38.27
39267;BME280;24967;51.154;13.812;2023-07-16T13:11:30;99382.81;;;29.71;38.08
39267;BME280;24967;51.154;13.812;2023-07-16T13:13:56;99392.88;;;29.86;39.51
39267;BME280;24967;51.154;13.812;2023-07-16T13:16:22;99385.53;;;29.76;37.47
39267;BME280;24967;51.154;13.812;2023-07-16T13:18:49;99388.34;;;30.16;38.85
39267;BME280;24967;51.154;13.812;2023-07-16T13:21:15;99386.00;;;29.94;38.46
39267;BME280;24967;51.154;13.812;2023-07-16T13:23:43;99387.81;;;30.13;38.54
39267;BME280;24967;51.154;13.812;2023-07-16T13:26:09;99395.81;;;30.05;37.38
39267;BME280;24967;51.154;13.812;2023-07-16T13:28:35;99384.97;;;29.79;37.76
39267;BME280;24967;51.154;13.812;2023-07-16T13:31:02;99387.50;;;30.25;37.77
39267;BME280;24967;51.154;13.812;2023-07-16T13:33:28;99382.88;;;30.16;37.06
39267;BME280;24967;51.154;13.812;2023-07-16T13:35:55;99385.50;;;30.41;39.37
39267;BME280;24967;51.154;13.812;2023-07-16T13:38:22;99383.38;;;30.28;37.76
39267;BME280;24967;51.154;13.812;2023-07-16T13:40:49;99381.13;;;30.35;37.86
39267;BME280;24967;51.154;13.812;2023-07-16T13:43:16;99385.28;;;30.67;37.80
39267;BME280;24967;51.154;13.812;2023-07-16T13:45:42;99379.09;;;30.85;35.94
39267;BME280;24967;51.154;13.812;2023-07-16T13:48:08;99392.25;;;30.54;35.63
39267;BME280;24967;51.154;13.812;2023-07-16T13:50:35;99397.31;;;30.71;35.67
39267;BME280;24967;51.154;13.812;2023-07-16T13:53:01;99390.56;;;30.58;34.96
39267;BME280;24967;51.154;13.812;2023-07-16T13:55:28;99383.59;;;30.37;35.31
39267;BME280;24967;51.154;13.812;2023-07-16T13:57:56;99386.41;;;30.16;35.20
39267;BME280;24967;51.154;13.812;2023-07-16T14:00:23;99391.03;;;30.31;35.67
39267;BME280;24967;51.154;13.812;2023-07-16T14:02:49;99387.66;;;30.44;34.96
39267;BME280;24967;51.154;13.812;2023-07-16T14:05:15;99376.50;;;30.30;36.37
39267;BME280;24967;51.154;13.812;2023-07-16T14:07:42;99382.94;;;30.50;35.39
39267;BME280;24967;51.154;13.812;2023-07-16T14:10:08;99394.44;;;30.52;34.73
39267;BME280;24967;51.154;13.812;2023-07-16T14:12:35;99383.13;;;30.24;34.91
39267;BME280;24967;51.154;13.812;2023-07-16T14:15:03;99376.50;;;30.65;34.86
39267;BME280;24967;51.154;13.812;2023-07-16T14:17:29;99380.16;;;30.89;35.46
39267;BME280;24967;51.154;13.812;2023-07-16T14:19:55;99380.38;;;30.64;35.15
39267;BME280;24967;51.154;13.812;2023-07-16T14:22:22;99373.25;;;30.97;35.39
39267;BME280;24967;51.154;13.812;2023-07-16T14:24:52;99375.78;;;31.17;34.29
39267;BME280;24967;51.154;13.812;2023-07-16T14:27:19;99367.47;;;31.22;33.39
39267;BME280;24967;51.154;13.812;2023-07-16T14:29:45;99373.72;;;30.70;33.60
39267;BME280;24967;51.154;13.812;2023-07-16T14:32:13;99382.38;;;31.16;34.00
39267;BME280;24967;51.154;13.812;2023-07-16T14:34:39;99375.78;;;31.17;34.36
39267;BME280;24967;51.154;13.812;2023-07-16T14:37:05;99371.81;;;31.05;34.00
39267;BME280;24967;51.154;13.812;2023-07-16T14:39:32;99377.00;;;31.06;34.31
39267;BME280;24967;51.154;13.812;2023-07-16T14:41:58;99377.16;;;31.20;34.08
39267;BME280;24967;51.154;13.812;2023-07-16T14:44:28;99375.59;;;30.79;32.52
39267;BME280;24967;51.154;13.812;2023-07-16T14:46:54;99384.75;;;30.99;32.74
39267;BME280;24967;51.154;13.812;2023-07-16T14:49:22;99380.00;;;30.80;33.19
39267;BME280;24967;51.154;13.812;2023-07-16T14:51:48;99384.91;;;30.84;32.86
39267;BME280;24967;51.154;13.812;2023-07-16T14:54:15;99369.72;;;30.91;34.57
39267;BME280;24967;51.154;13.812;2023-07-16T14:56:41;99364.91;;;31.07;32.88
39267;BME280;24967;51.154;13.812;2023-07-16T14:59:07;99367.38;;;31.33;32.90
39267;BME280;24967;51.154;13.812;2023-07-16T15:01:34;99372.44;;;30.96;32.17
39267;BME280;24967;51.154;13.812;2023-07-16T15:04:00;99369.56;;;30.77;31.82
39267;BME280;24967;51.154;13.812;2023-07-16T15:06:30;99365.94;;;30.87;32.53
39267;BME280;24967;51.154;13.812;2023-07-16T15:08:57;99368.78;;;30.72;31.88
39267;BME280;24967;51.154;13.812;2023-07-16T15:11:23;99363.09;;;30.29;31.91
39267;BME280;24967;51.154;13.812;2023-07-16T15:13:49;99364.63;;;30.40;32.07
39267;BME280;24967;51.154;13.812;2023-07-16T15:16:16;99351.63;;;30.56;32.02
39267;BME280;24967;51.154;13.812;2023-07-16T15:18:42;99355.72;;;30.58;32.47
39267;BME280;24967;51.154;13.812;2023-07-16T15:21:10;99354.34;;;30.56;31.96
39267;BME280;24967;51.154;13.812;2023-07-16T15:23:38;99367.38;;;30.40;31.75
39267;BME280;24967;51.154;13.812;2023-07-16T15:26:04;99357.91;;;30.22;32.70
39267;BME280;24967;51.154;13.812;2023-07-16T15:28:32;99358.00;;;30.46;32.09
39267;BME280;24967;51.154;13.812;2023-07-16T15:30:59;99361.53;;;30.52;32.95
39267;BME280;24967;51.154;13.812;2023-07-16T15:33:25;99357.97;;;30.51;32.57
39267;BME280;24967;51.154;13.812;2023-07-16T15:35:52;99360.28;;;30.34;33.00
39267;BME280;24967;51.154;13.812;2023-07-16T15:38:18;99349.91;;;30.31;33.18
39267;BME280;24967;51.154;13.812;2023-07-16T15:40:46;99366.19;;;30.51;33.33
39267;BME280;24967;51.154;13.812;2023-07-16T15:43:12;99355.34;;;30.36;32.39
39267;BME280;24967;51.154;13.812;2023-07-16T15:45:39;99364.38;;;30.37;32.03
39267;BME280;24967;51.154;13.812;2023-07-16T15:48:05;99367.72;;;30.33;32.38
39267;BME280;24967;51.154;13.812;2023-07-16T15:50:32;99369.81;;;30.02;32.31
39267;BME280;24967;51.154;13.812;2023-07-16T15:52:59;99362.09;;;30.04;32.79
39267;BME280;24967;51.154;13.812;2023-07-16T15:55:26;99364.56;;;30.06;33.13
39267;BME280;24967;51.154;13.812;2023-07-16T15:57:53;99351.75;;;29.96;33.87
39267;BME280;24967;51.154;13.812;2023-07-16T16:00:20;99355.81;;;30.04;33.89
39267;BME280;24967;51.154;13.812;2023-07-16T16:02:47;99360.44;;;30.08;33.55
39267;BME280;24967;51.154;13.812;2023-07-16T16:05:13;99360.63;;;30.27;33.00
39267;BME280;24967;51.154;13.812;2023-07-16T16:07:42;99353.50;;;30.26;33.71
39267;BME280;24967;51.154;13.812;2023-07-16T16:10:08;99366.44;;;30.10;33.46
39267;BME280;24967;51.154;13.812;2023-07-16T16:12:35;99360.31;;;29.84;33.14
39267;BME280;24967;51.154;13.812;2023-07-16T16:15:03;99358.59;;;29.99;33.46
39267;BME280;24967;51.154;13.812;2023-07-16T16:17:29;99362.00;;;30.25;34.37
39267;BME280;24967;51.154;13.812;2023-07-16T16:19:57;99369.50;;;30.04;33.85
39267;BME280;24967;51.154;13.812;2023-07-16T16:22:23;99366.59;;;29.85;34.13
39267;BME280;24967;51.154;13.812;2023-07-16T16:24:50;99359.66;;;29.98;33.01
39267;BME280;24967;51.154;13.812;2023-07-16T16:27:16;99371.19;;;29.95;33.81
39267;BME280;24967;51.154;13.812;2023-07-16T16:29:42;99363.13;;;30.24;33.48
39267;BME280;24967;51.154;13.812;2023-07-16T16:32:10;99373.63;;;30.01;33.20
39267;BME280;24967;51.154;13.812;2023-07-16T16:34:36;99372.00;;;30.00;33.61
39267;BME280;24967;51.154;13.812;2023-07-16T16:37:03;99368.69;;;30.03;33.31